createdAt,value
2018-03-21T00:01:16.465Z,100931.69
2018-03-21T00:03:44.987Z,100926.27
2018-03-21T00:06:13.322Z,100935.45
2018-03-21T00:08:41.747Z,100932.83
2018-03-21T00:11:10.145Z,100939.48
2018-03-21T00:13:38.590Z,100948.45
2018-03-21T00:16:06.981Z,100955.33
2018-03-21T00:18:35.412Z,100959.31
2018-03-21T00:21:03.770Z,100961.55
2018-03-21T00:23:32.108Z,100967.83
2018-03-21T00:26:00.513Z,100968.33
2018-03-21T00:28:28.906Z,100975.09
2018-03-21T00:30:57.236Z,100976.48
2018-03-21T00:33:25.577Z,100981.63
2018-03-21T00:35:53.966Z,100985.84
2018-03-21T00:38:22.468Z,100994.62
2018-03-21T00:43:25.500Z,100997.36
2018-03-21T00:45:53.889Z,100996.80
2018-03-21T00:48:22.205Z,100998.44
2018-03-21T00:50:50.531Z,101007.16
2018-03-21T00:53:18.968Z,101008.72
2018-03-21T00:55:47.297Z,101010.54
2018-03-21T00:58:15.643Z,101007.05
2018-03-21T01:00:44.007Z,101012.16
2018-03-21T01:03:12.709Z,101018.31
2018-03-21T01:05:41.188Z,101011.25
2018-03-21T01:08:09.578Z,101011.19
2018-03-21T01:10:37.980Z,101013.16
2018-03-21T01:13:06.293Z,101012.70
2018-03-21T01:15:34.599Z,101012.45
2018-03-21T01:18:02.939Z,101011.85
2018-03-21T01:20:31.268Z,101002.92
2018-03-21T01:22:59.658Z,101008.86
2018-03-21T01:25:27.984Z,101006.55
2018-03-21T01:27:56.363Z,101007.41
2018-03-21T01:30:24.978Z,101011.04
2018-03-21T01:32:53.539Z,101013.22
2018-03-21T01:35:21.972Z,101017.66
2018-03-21T01:37:50.311Z,101019.31
2018-03-21T01:40:18.751Z,101020.78
2018-03-21T01:42:47.094Z,101019.47
2018-03-21T01:45:15.518Z,101019.38
2018-03-21T01:47:43.852Z,101019.06
2018-03-21T01:50:12.175Z,101017.69
2018-03-21T01:52:40.508Z,101019.75
2018-03-21T01:55:08.922Z,101021.62
2018-03-21T01:57:37.268Z,101020.88
2018-03-21T02:00:05.667Z,101020.97
2018-03-21T02:02:33.988Z,101026.71
2018-03-21T02:05:02.341Z,101030.17
2018-03-21T02:07:30.646Z,101028.77
2018-03-21T02:09:59.028Z,101028.11
2018-03-21T02:12:27.337Z,101030.41
2018-03-21T02:14:55.668Z,101037.78
2018-03-21T02:17:24.107Z,101029.53
2018-03-21T02:19:52.494Z,101030.03
2018-03-21T02:22:20.907Z,101031.67
2018-03-21T02:24:49.751Z,101029.36
2018-03-21T02:27:18.131Z,101037.41
2018-03-21T02:29:46.472Z,101038.61
2018-03-21T02:32:14.800Z,101039.70
2018-03-21T02:34:43.133Z,101042.56
2018-03-21T02:37:11.533Z,101042.14
2018-03-21T02:39:39.919Z,101046.16
2018-03-21T02:42:08.241Z,101049.69
2018-03-21T02:44:36.617Z,101049.01
2018-03-21T02:47:04.936Z,101058.33
2018-03-21T02:49:33.268Z,101053.02
2018-03-21T02:52:01.590Z,101056.05
2018-03-21T02:54:29.932Z,101061.98
2018-03-21T02:56:58.269Z,101062.56
2018-03-21T02:59:26.650Z,101067.97
2018-03-21T03:01:54.989Z,101074.74
2018-03-21T03:04:23.337Z,101079.38
2018-03-21T03:06:51.664Z,101070.95
2018-03-21T03:09:19.994Z,101073.06
2018-03-21T03:11:48.339Z,101071.73
2018-03-21T03:14:16.649Z,101072.61
2018-03-21T03:16:45.426Z,101077.50
2018-03-21T03:19:13.791Z,101076.87
2018-03-21T03:21:42.449Z,101074.87
2018-03-21T03:24:10.918Z,101075.36
2018-03-21T03:26:39.269Z,101071.31
2018-03-21T03:29:07.688Z,101076.38
2018-03-21T03:31:36.073Z,101079.38
2018-03-21T03:34:04.381Z,101076.67
2018-03-21T03:36:32.721Z,101073.48
2018-03-21T03:39:01.127Z,101078.04
2018-03-21T03:41:29.522Z,101079.47
2018-03-21T03:43:57.938Z,101078.52
2018-03-21T03:46:26.778Z,101087.03
2018-03-21T03:48:55.128Z,101083.45
2018-03-21T03:51:23.511Z,101080.27
2018-03-21T03:53:57.392Z,101078.92
2018-03-21T03:56:25.826Z,101086.59
2018-03-21T03:58:54.141Z,101089.98
2018-03-21T04:01:22.458Z,101080.42
2018-03-21T04:03:50.801Z,101080.42
2018-03-21T04:06:19.200Z,101085.27
2018-03-21T04:08:47.526Z,101080.22
2018-03-21T04:11:15.923Z,101087.07
2018-03-21T04:13:44.276Z,101081.31
2018-03-21T04:16:12.699Z,101082.94
2018-03-21T04:18:41.053Z,101087.05
2018-03-21T04:21:09.450Z,101091.33
2018-03-21T04:23:37.789Z,101095.66
2018-03-21T04:26:06.119Z,101100.12
2018-03-21T04:28:34.434Z,101094.98
2018-03-21T04:31:02.749Z,101106.83
2018-03-21T04:33:31.087Z,101103.55
2018-03-21T04:35:59.481Z,101104.85
2018-03-21T04:38:27.884Z,101110.70
2018-03-21T04:40:56.214Z,101101.78
2018-03-21T04:43:24.554Z,101104.13
2018-03-21T04:45:52.868Z,101108.68
2018-03-21T04:48:21.192Z,101107.09
2018-03-21T04:50:49.638Z,101103.72
2018-03-21T04:53:18.006Z,101102.64
2018-03-21T04:55:46.479Z,101105.84
2018-03-21T04:58:14.828Z,101104.36
2018-03-21T05:00:43.171Z,101102.59
2018-03-21T05:03:11.500Z,101105.34
2018-03-21T05:05:39.859Z,101101.42
2018-03-21T05:08:08.281Z,101107.86
2018-03-21T05:10:36.601Z,101113.31
2018-03-21T05:13:04.921Z,101113.27
2018-03-21T05:15:33.275Z,101111.37
2018-03-21T05:18:01.600Z,101109.66
2018-03-21T05:20:29.933Z,101118.14
2018-03-21T05:22:58.252Z,101117.59
2018-03-21T05:25:26.628Z,101114.84
2018-03-21T05:27:54.936Z,101121.87
2018-03-21T05:30:23.263Z,101135.94
2018-03-21T05:32:51.606Z,101126.45
2018-03-21T05:35:20.018Z,101128.70
2018-03-21T05:37:48.325Z,101129.41
2018-03-21T05:40:16.680Z,101134.59
2018-03-21T05:42:45.138Z,101143.61
2018-03-21T05:45:13.517Z,101145.13
2018-03-21T05:47:41.845Z,101137.73
2018-03-21T05:50:11.062Z,101144.12
2018-03-21T05:52:39.464Z,101151.98
2018-03-21T05:55:07.864Z,101151.47
2018-03-21T05:57:36.196Z,101147.77
2018-03-21T06:00:04.533Z,101148.71
2018-03-21T06:02:32.856Z,101153.75
2018-03-21T06:05:01.201Z,101156.25
2018-03-21T06:07:29.527Z,101152.17
2018-03-21T06:09:57.857Z,101155.95
2018-03-21T06:12:26.190Z,101155.22
2018-03-21T06:14:54.506Z,101158.00
2018-03-21T06:17:22.911Z,101155.59
2018-03-21T06:19:51.254Z,101159.22
2018-03-21T06:22:19.588Z,101171.82
2018-03-21T06:24:47.903Z,101166.80
2018-03-21T06:27:16.278Z,101168.36
2018-03-21T06:29:44.596Z,101167.88
2018-03-21T06:32:12.928Z,101174.93
2018-03-21T06:34:41.405Z,101179.87
2018-03-21T06:37:09.768Z,101188.05
2018-03-21T06:39:38.064Z,101187.32
2018-03-21T06:42:06.393Z,101186.52
2018-03-21T06:44:35.079Z,101194.94
2018-03-21T06:47:03.425Z,101197.66
2018-03-21T06:49:31.780Z,101196.44
2018-03-21T06:52:00.631Z,101195.91
2018-03-21T06:54:29.033Z,101195.80
2018-03-21T06:56:57.499Z,101201.98
2018-03-21T06:59:25.820Z,101206.41
2018-03-21T07:01:54.173Z,101204.62
2018-03-21T07:04:22.486Z,101210.08
2018-03-21T07:06:50.876Z,101203.70
2018-03-21T07:09:19.478Z,101212.73
2018-03-21T07:11:47.807Z,101212.20
2018-03-21T07:14:27.924Z,101215.72
2018-03-21T07:16:56.248Z,101213.48
2018-03-21T07:19:24.641Z,101218.17
2018-03-21T07:21:53.389Z,101221.47
2018-03-21T07:24:21.772Z,101223.54
2018-03-21T07:26:50.121Z,101230.48
2018-03-21T07:29:18.462Z,101219.55
2018-03-21T07:31:46.766Z,101223.33
2018-03-21T07:34:15.103Z,101222.65
2018-03-21T07:36:43.483Z,101223.06
2018-03-21T07:39:11.832Z,101225.88
2018-03-21T07:41:40.157Z,101218.19
2018-03-21T07:44:08.479Z,101227.14
2018-03-21T07:46:37.286Z,101232.88
2018-03-21T07:49:05.644Z,101231.19
2018-03-21T07:51:34.176Z,101233.45
2018-03-21T07:54:02.504Z,101236.58
2018-03-21T07:56:30.834Z,101236.66
2018-03-21T07:58:59.153Z,101243.17
2018-03-21T08:01:27.456Z,101250.20
2018-03-21T08:03:55.805Z,101242.15
2018-03-21T08:06:24.113Z,101240.19
2018-03-21T08:08:52.450Z,101245.97
2018-03-21T08:11:20.765Z,101244.36
2018-03-21T08:13:49.222Z,101238.64
2018-03-21T08:16:17.553Z,101246.11
2018-03-21T08:18:45.876Z,101241.03
2018-03-21T08:21:14.254Z,101245.95
2018-03-21T08:23:42.580Z,101244.29
2018-03-21T08:26:10.943Z,101253.94
2018-03-21T08:28:39.252Z,101252.06
2018-03-21T08:31:07.578Z,101257.20
2018-03-21T08:33:35.893Z,101253.59
2018-03-21T08:36:04.225Z,101256.64
2018-03-21T08:38:32.522Z,101259.24
2018-03-21T08:41:00.850Z,101260.52
2018-03-21T08:43:29.203Z,101266.08
2018-03-21T08:45:57.514Z,101269.98
2018-03-21T08:48:25.818Z,101263.87
2018-03-21T08:50:54.332Z,101272.13
2018-03-21T08:53:22.720Z,101268.17
2018-03-21T08:55:51.737Z,101272.25
2018-03-21T08:58:20.084Z,101262.81
2018-03-21T09:00:48.420Z,101263.81
2018-03-21T09:03:16.720Z,101275.37
2018-03-21T09:05:45.066Z,101272.39
2018-03-21T09:08:13.359Z,101279.27
2018-03-21T09:10:41.717Z,101274.84
2018-03-21T09:13:10.061Z,101273.72
2018-03-21T09:15:38.390Z,101274.59
2018-03-21T09:18:06.725Z,101279.55
2018-03-21T09:20:35.061Z,101279.29
2018-03-21T09:23:03.375Z,101282.36
2018-03-21T09:25:31.691Z,101277.64
2018-03-21T09:28:00.009Z,101280.05
2018-03-21T09:30:28.327Z,101278.91
2018-03-21T09:32:56.660Z,101277.30
2018-03-21T09:35:25.027Z,101278.89
2018-03-21T09:37:53.501Z,101278.45
2018-03-21T09:40:21.831Z,101276.10
2018-03-21T09:42:50.172Z,101278.37
2018-03-21T09:45:18.564Z,101273.98
2018-03-21T09:47:46.882Z,101275.77
2018-03-21T09:50:15.210Z,101281.38
2018-03-21T09:52:43.578Z,101282.83
2018-03-21T09:55:12.058Z,101278.34
2018-03-21T09:57:40.394Z,101282.52
2018-03-21T10:00:08.726Z,101277.11
2018-03-21T10:02:37.171Z,101268.56
2018-03-21T10:05:05.539Z,101270.72
2018-03-21T10:07:33.874Z,101277.58
2018-03-21T10:10:02.241Z,101270.37
2018-03-21T10:12:30.569Z,101273.36
2018-03-21T10:14:58.901Z,101273.89
2018-03-21T10:17:27.221Z,101269.78
2018-03-21T10:19:55.561Z,101269.02
2018-03-21T10:22:23.868Z,101269.70
2018-03-21T10:24:52.203Z,101275.86
2018-03-21T10:27:20.523Z,101269.98
2018-03-21T10:29:48.901Z,101267.52
2018-03-21T10:32:17.228Z,101258.70
2018-03-21T10:34:45.585Z,101264.04
2018-03-21T10:37:13.956Z,101264.65
2018-03-21T10:39:42.316Z,101247.55
2018-03-21T10:42:10.615Z,101249.41
2018-03-21T10:44:38.956Z,101259.39
2018-03-21T10:47:07.275Z,101249.72
2018-03-21T10:49:35.620Z,101248.97
2018-03-21T10:52:03.952Z,101260.48
2018-03-21T10:54:32.332Z,101253.29
2018-03-21T10:57:00.601Z,101245.20
2018-03-21T10:59:28.940Z,101248.25
2018-03-21T11:02:02.886Z,101249.12
2018-03-21T11:04:31.393Z,101248.19
2018-03-21T11:06:59.715Z,101240.92
2018-03-21T11:09:28.065Z,101240.64
2018-03-21T11:11:56.398Z,101235.27
2018-03-21T11:14:24.654Z,101240.28
2018-03-21T11:16:52.962Z,101236.11
2018-03-21T11:19:21.287Z,101248.58
2018-03-21T11:21:49.601Z,101248.89
2018-03-21T11:24:17.912Z,101245.59
2018-03-21T11:26:46.216Z,101238.33
2018-03-21T11:29:14.558Z,101241.70
2018-03-21T11:31:42.976Z,101236.34
2018-03-21T11:34:11.358Z,101232.50
2018-03-21T11:36:39.633Z,101223.98
2018-03-21T11:39:07.944Z,101215.70
2018-03-21T11:41:36.344Z,101214.76
2018-03-21T11:44:04.673Z,101212.28
2018-03-21T11:46:33.013Z,101213.64
2018-03-21T11:49:01.343Z,101208.38
2018-03-21T11:51:29.680Z,101199.84
2018-03-21T11:53:57.992Z,101211.36
2018-03-21T11:56:26.377Z,101211.02
2018-03-21T11:58:54.672Z,101209.91
2018-03-21T12:01:23.064Z,101198.31
2018-03-21T12:03:51.380Z,101198.88
2018-03-21T12:06:19.722Z,101198.45
2018-03-21T12:08:48.116Z,101212.32
2018-03-21T12:11:16.430Z,101210.85
2018-03-21T12:13:44.752Z,101210.44
2018-03-21T12:16:13.056Z,101204.20
2018-03-21T12:18:41.382Z,101208.67
2018-03-21T12:21:09.748Z,101202.14
2018-03-21T12:23:38.085Z,101195.75
2018-03-21T12:26:06.393Z,101191.82
2018-03-21T12:28:34.705Z,101199.11
2018-03-21T12:31:03.031Z,101193.66
2018-03-21T12:33:31.349Z,101195.67
2018-03-21T12:35:59.662Z,101195.39
2018-03-21T12:38:27.981Z,101194.97
2018-03-21T12:40:56.295Z,101196.94
2018-03-21T12:43:24.638Z,101176.17
2018-03-21T12:45:52.953Z,101178.45
2018-03-21T12:48:21.299Z,101179.87
2018-03-21T12:50:49.623Z,101178.41
2018-03-21T12:53:17.947Z,101170.33
2018-03-21T12:55:46.397Z,101172.63
2018-03-21T12:58:14.641Z,101173.00
2018-03-21T13:00:43.000Z,101169.45
2018-03-21T13:03:11.365Z,101161.66
2018-03-21T13:05:39.709Z,101163.41
2018-03-21T13:08:08.035Z,101168.78
2018-03-21T13:10:36.356Z,101164.47
2018-03-21T13:13:04.703Z,101165.91
2018-03-21T13:15:33.012Z,101163.94
2018-03-21T13:18:01.330Z,101158.56
2018-03-21T13:20:29.673Z,101159.08
2018-03-21T13:22:58.237Z,101164.61
2018-03-21T13:25:26.552Z,101156.74
2018-03-21T13:27:54.884Z,101158.58
2018-03-21T13:30:23.236Z,101171.38
2018-03-21T13:32:52.245Z,101178.05
2018-03-21T13:35:20.626Z,101164.06
2018-03-21T13:37:48.931Z,101168.02
2018-03-21T13:40:17.261Z,101163.56
2018-03-21T13:42:45.601Z,101168.25
2018-03-21T13:45:13.938Z,101155.53
2018-03-21T13:47:42.264Z,101159.14
2018-03-21T13:50:10.592Z,101159.86
2018-03-21T13:52:38.937Z,101147.53
2018-03-21T13:55:07.264Z,101156.67
2018-03-21T13:57:35.572Z,101144.74
2018-03-21T14:00:03.906Z,101150.18
2018-03-21T14:02:32.185Z,101148.77
2018-03-21T14:05:00.509Z,101143.84
2018-03-21T14:07:28.828Z,101158.30
2018-03-21T14:09:57.137Z,101158.72
2018-03-21T14:12:25.476Z,101150.39
2018-03-21T14:14:53.809Z,101152.97
2018-03-21T14:17:22.201Z,101151.14
2018-03-21T14:19:50.520Z,101144.22
2018-03-21T14:22:18.870Z,101146.52
2018-03-21T14:24:47.168Z,101144.55
2018-03-21T14:27:15.518Z,101140.29
2018-03-21T14:29:43.869Z,101145.52
2018-03-21T14:32:12.233Z,101138.28
2018-03-21T14:34:40.552Z,101139.02
2018-03-21T14:37:08.888Z,101132.36
2018-03-21T14:39:37.194Z,101134.37
2018-03-21T14:42:05.531Z,101122.59
2018-03-21T14:44:33.890Z,101122.75
2018-03-21T14:47:02.231Z,101131.43
2018-03-21T14:49:30.601Z,101129.39
2018-03-21T14:51:58.896Z,101129.88
2018-03-21T14:54:27.200Z,101132.15
2018-03-21T14:56:55.582Z,101135.56
2018-03-21T14:59:23.876Z,101122.72
2018-03-21T15:01:52.232Z,101123.41
2018-03-21T15:04:20.561Z,101119.38
2018-03-21T15:06:48.884Z,101127.74
2018-03-21T15:09:17.188Z,101129.02
2018-03-21T15:11:45.499Z,101130.05
2018-03-21T15:14:13.865Z,101118.19
2018-03-21T15:16:42.179Z,101116.09
2018-03-21T15:19:10.579Z,101113.67
2018-03-21T15:21:38.819Z,101111.63
2018-03-21T15:24:07.135Z,101111.43
2018-03-21T15:26:35.474Z,101116.24
2018-03-21T15:29:09.735Z,101107.03
2018-03-21T15:31:38.033Z,101110.16
2018-03-21T15:34:06.360Z,101103.81
2018-03-21T15:36:34.664Z,101098.61
2018-03-21T15:39:03.002Z,101108.61
2018-03-21T15:41:31.347Z,101104.23
2018-03-21T15:43:59.678Z,101103.30
2018-03-21T15:46:28.038Z,101098.22
2018-03-21T15:48:56.608Z,101097.55
2018-03-21T15:51:25.011Z,101100.76
2018-03-21T15:53:53.326Z,101104.23
2018-03-21T15:56:21.693Z,101108.26
2018-03-21T15:58:50.028Z,101102.93
2018-03-21T16:01:18.341Z,101105.55
2018-03-21T16:03:46.690Z,101107.64
2018-03-21T16:06:15.011Z,101109.27
2018-03-21T16:08:43.339Z,101100.28
2018-03-21T16:11:11.657Z,101106.89
2018-03-21T16:13:39.989Z,101100.11
2018-03-21T16:16:08.308Z,101102.48
2018-03-21T16:18:36.628Z,101105.47
2018-03-21T16:21:05.066Z,101104.47
2018-03-21T16:23:33.558Z,101102.91
2018-03-21T16:26:01.948Z,101091.48
2018-03-21T16:28:30.259Z,101094.16
2018-03-21T16:30:58.733Z,101097.58
2018-03-21T16:33:27.031Z,101090.58
2018-03-21T16:35:55.457Z,101095.70
2018-03-21T16:38:23.757Z,101095.10
2018-03-21T16:40:52.093Z,101092.23
2018-03-21T16:43:21.053Z,101095.78
2018-03-21T16:45:49.388Z,101093.22
2018-03-21T16:48:17.800Z,101091.85
2018-03-21T16:50:46.231Z,101086.84
2018-03-21T16:53:14.585Z,101084.21
2018-03-21T16:55:42.914Z,101079.66
2018-03-21T16:58:11.261Z,101082.53
2018-03-21T17:00:39.679Z,101084.66
2018-03-21T17:03:07.981Z,101078.68
2018-03-21T17:05:36.528Z,101079.48
2018-03-21T17:08:04.883Z,101082.08
2018-03-21T17:10:33.215Z,101082.41
2018-03-21T17:13:01.612Z,101082.05
2018-03-21T17:15:29.942Z,101075.31
2018-03-21T17:17:58.280Z,101075.83
2018-03-21T17:20:26.594Z,101079.09
2018-03-21T17:22:54.910Z,101084.90
2018-03-21T17:25:23.230Z,101084.00
2018-03-21T17:27:52.278Z,101079.81
2018-03-21T17:30:20.660Z,101093.64
2018-03-21T17:32:49.365Z,101092.52
2018-03-21T17:35:17.705Z,101084.86
2018-03-21T17:37:46.033Z,101091.48
2018-03-21T17:40:14.360Z,101086.70
2018-03-21T17:42:42.722Z,101085.47
2018-03-21T17:45:11.044Z,101088.09
2018-03-21T17:47:39.361Z,101092.05
2018-03-21T17:50:07.679Z,101082.58
2018-03-21T17:52:35.993Z,101083.88
2018-03-21T17:55:05.908Z,101088.44
2018-03-21T17:57:34.219Z,101082.42
2018-03-21T18:00:02.578Z,101087.97
2018-03-21T18:02:30.904Z,101091.31
2018-03-21T18:04:59.401Z,101082.66
2018-03-21T18:07:27.802Z,101085.23
2018-03-21T18:09:56.167Z,101092.16
2018-03-21T18:12:24.617Z,101089.11
2018-03-21T18:14:52.964Z,101090.50
2018-03-21T18:17:21.273Z,101094.63
2018-03-21T18:19:49.676Z,101090.51
2018-03-21T18:22:18.023Z,101092.13
2018-03-21T18:24:46.396Z,101093.44
2018-03-21T18:27:14.711Z,101089.84
2018-03-21T18:29:43.016Z,101088.81
2018-03-21T18:32:11.370Z,101090.42
2018-03-21T18:34:39.774Z,101084.39
2018-03-21T18:37:08.094Z,101090.84
2018-03-21T18:39:36.426Z,101084.20
2018-03-21T18:42:04.788Z,101084.87
2018-03-21T18:44:35.298Z,101087.74
2018-03-21T18:47:03.629Z,101088.81
2018-03-21T18:49:32.145Z,101080.80
2018-03-21T18:52:00.511Z,101080.69
2018-03-21T18:54:28.846Z,101073.00
2018-03-21T18:56:57.795Z,101070.52
2018-03-21T18:59:27.057Z,101071.96
2018-03-21T19:01:55.395Z,101071.17
2018-03-21T19:04:23.720Z,101072.48
2018-03-21T19:06:52.020Z,101072.59
2018-03-21T19:09:20.348Z,101066.69
2018-03-21T19:11:48.717Z,101071.72
2018-03-21T19:14:17.028Z,101068.29
2018-03-21T19:16:45.375Z,101070.30
2018-03-21T19:19:13.712Z,101072.19
2018-03-21T19:21:42.027Z,101067.48
2018-03-21T19:24:10.392Z,101060.78
2018-03-21T19:26:39.323Z,101057.23
2018-03-21T19:29:07.633Z,101052.98
2018-03-21T19:31:36.040Z,101056.36
2018-03-21T19:34:04.353Z,101054.98
2018-03-21T19:36:32.697Z,101055.62
2018-03-21T19:39:01.075Z,101053.61
2018-03-21T19:41:29.551Z,101053.09
2018-03-21T19:43:58.493Z,101042.06
2018-03-21T19:46:26.839Z,101039.25
2018-03-21T19:48:56.816Z,101038.90
2018-03-21T19:51:25.150Z,101039.06
2018-03-21T19:53:53.503Z,101028.69
2018-03-21T19:56:21.967Z,101035.18
2018-03-21T19:58:50.291Z,101030.01
2018-03-21T20:01:18.696Z,101023.95
2018-03-21T20:03:47.082Z,101021.98
2018-03-21T20:06:15.462Z,101014.70
2018-03-21T20:08:43.788Z,101011.50
2018-03-21T20:11:12.118Z,101012.81
2018-03-21T20:13:40.543Z,101014.13
2018-03-21T20:16:08.994Z,101010.11
2018-03-21T20:18:37.321Z,101013.43
2018-03-21T20:21:05.636Z,101011.41
2018-03-21T20:23:34.050Z,101004.86
2018-03-21T20:26:02.374Z,101003.86
2018-03-21T20:28:30.703Z,101008.02
2018-03-21T20:30:59.095Z,101005.41
2018-03-21T20:33:27.419Z,101000.09
2018-03-21T20:35:55.762Z,100999.87
2018-03-21T20:38:24.085Z,100999.12
2018-03-21T20:40:52.417Z,100998.19
2018-03-21T20:43:20.776Z,100987.03
2018-03-21T20:45:49.081Z,100989.16
2018-03-21T20:48:17.400Z,100980.63
2018-03-21T20:50:45.890Z,100979.37
2018-03-21T20:53:14.224Z,100976.97
2018-03-21T20:55:42.563Z,100979.55
2018-03-21T20:58:10.990Z,100981.33
2018-03-21T21:00:39.303Z,100973.16
2018-03-21T21:03:07.817Z,100976.00
2018-03-21T21:05:37.090Z,100965.80
2018-03-21T21:08:05.453Z,100962.55
2018-03-21T21:10:33.881Z,100968.55
2018-03-21T21:13:02.458Z,100966.65
2018-03-21T21:15:30.801Z,100964.30
2018-03-21T21:17:59.102Z,100963.27
2018-03-21T21:20:27.436Z,100954.44
2018-03-21T21:22:55.770Z,100956.38
2018-03-21T21:25:24.100Z,100951.77
2018-03-21T21:27:52.407Z,100944.83
2018-03-21T21:30:20.800Z,100945.60
2018-03-21T21:32:49.117Z,100947.88
2018-03-21T21:35:17.613Z,100946.66
2018-03-21T21:37:45.938Z,100942.84
2018-03-21T21:40:14.377Z,100936.48
2018-03-21T21:42:42.776Z,100942.17
2018-03-21T21:45:11.184Z,100939.77
2018-03-21T21:47:39.640Z,100944.59
2018-03-21T21:50:08.046Z,100940.16
2018-03-21T21:52:36.414Z,100932.81
2018-03-21T21:55:04.746Z,100933.96
2018-03-21T21:57:33.110Z,100932.42
2018-03-21T22:00:01.446Z,100923.06
2018-03-21T22:02:29.764Z,100923.46
2018-03-21T22:04:58.093Z,100923.80
2018-03-21T22:07:26.419Z,100920.63
2018-03-21T22:09:54.864Z,100912.52
2018-03-21T22:12:24.067Z,100911.98
2018-03-21T22:14:53.144Z,100909.07
2018-03-21T22:17:21.577Z,100904.20
2018-03-21T22:19:50.008Z,100899.67
2018-03-21T22:22:18.356Z,100895.77
2018-03-21T22:24:46.669Z,100904.27
2018-03-21T22:27:15.082Z,100901.12
2018-03-21T22:29:43.389Z,100898.39
2018-03-21T22:32:11.760Z,100889.20
2018-03-21T22:34:40.117Z,100888.02
2018-03-21T22:37:08.555Z,100893.27
2018-03-21T22:39:36.987Z,100893.97
2018-03-21T22:42:05.307Z,100888.40
2018-03-21T22:44:33.641Z,100884.77
2018-03-21T22:47:01.973Z,100870.18
2018-03-21T22:49:30.382Z,100881.22
2018-03-21T22:51:58.736Z,100862.12
2018-03-21T22:54:28.097Z,100872.94
2018-03-21T22:56:56.412Z,100863.17
2018-03-21T22:59:24.742Z,100868.48
2018-03-21T23:01:53.924Z,100862.70
2018-03-21T23:04:22.426Z,100859.63
2018-03-21T23:06:50.736Z,100856.43
2018-03-21T23:09:19.253Z,100857.91
2018-03-21T23:11:47.664Z,100857.12
2018-03-21T23:14:15.977Z,100854.94
2018-03-21T23:16:44.293Z,100845.75
2018-03-21T23:22:04.022Z,100845.08
2018-03-21T23:24:32.386Z,100843.33
2018-03-21T23:27:00.709Z,100837.06
2018-03-21T23:29:29.044Z,100834.38
2018-03-21T23:31:57.436Z,100833.29
2018-03-21T23:34:25.760Z,100828.61
2018-03-21T23:36:54.070Z,100817.32
2018-03-21T23:39:22.416Z,100815.70
2018-03-21T23:41:50.775Z,100818.68
2018-03-21T23:44:19.222Z,100804.91
2018-03-21T23:46:47.595Z,100810.30
2018-03-21T23:49:15.923Z,100811.32
2018-03-21T23:51:44.376Z,100801.17
2018-03-21T23:54:12.785Z,100805.20
2018-03-21T23:56:41.317Z,100800.22
2018-03-21T23:59:09.880Z,100795.86
